Time;durP1;ratioP1;P1;durP2;ratioP2;P2;SDS_P1;SDS_P2;PMS_P1;PMS_P2;Temp;Humidity;BMP_temperature;BMP_pressure;BME280_temperature;BME280_humidity;BME280_pressure;Samples;Min_cycle;Max_cycle;Signal;HPM_P1;HPM_P2
2022/05/31 00:04:19;;;;;;;6.30;3.30;;;;;;;6.63;85.50;101187.38;10524538;28;20036;-75
2022/05/31 00:09:20;;;;;;;5.20;3.20;;;;;;;6.64;85.87;101185.69;10503771;28;20269;-75
2022/05/31 00:14:20;;;;;;;6.13;3.15;;;;;;;6.63;86.43;101187.38;10466584;28;20041;-75
2022/05/31 00:19:21;;;;;;;6.13;3.20;;;;;;;6.61;86.75;101182.06;10487015;28;20036;-75
2022/05/31 00:24:22;;;;;;;7.32;2.70;;;;;;;6.59;87.00;101187.94;10531051;28;20067;-75
2022/05/31 00:29:22;;;;;;;5.40;3.03;;;;;;;6.63;86.71;101181.28;10528846;28;20078;-75
2022/05/31 00:34:23;;;;;;;6.20;3.53;;;;;;;6.70;86.58;101173.97;10474266;28;20117;-76
2022/05/31 00:39:24;;;;;;;6.70;4.03;;;;;;;6.75;87.32;101179.50;10490912;28;20069;-75
2022/05/31 00:44:27;;;;;;;5.65;3.47;;;;;;;6.81;87.12;101168.59;10456970;28;20051;-75
2022/05/31 00:49:35;;;;;;;7.82;4.68;;;;;;;6.81;87.25;101169.53;10497396;28;20426;-75
2022/05/31 00:54:38;;;;;;;9.15;3.30;;;;;;;6.74;87.21;101170.78;10533349;28;20097;-75
2022/05/31 00:59:46;;;;;;;5.60;3.22;;;;;;;6.70;88.00;101167.91;10505283;28;20037;-75
2022/05/31 01:05:00;;;;;;;8.38;3.35;;;;;;;6.66;87.63;101160.69;10489866;28;20039;-75
2022/05/31 01:10:03;;;;;;;5.80;3.25;;;;;;;6.66;88.02;101164.16;10503086;28;20542;-75
2022/05/31 01:15:04;;;;;;;9.88;3.08;;;;;;;6.72;88.97;101169.78;10514224;28;20036;-75
2022/05/31 01:20:06;;;;;;;6.60;3.50;;;;;;;6.75;88.92;101164.78;10490349;28;20040;-75
2022/05/31 01:25:21;;;;;;;5.73;4.33;;;;;;;6.78;88.86;101158.00;10531043;28;20539;-75
2022/05/31 01:30:22;;;;;;;9.23;3.05;;;;;;;6.85;88.78;101160.22;10514412;28;20271;-75
2022/05/31 01:35:41;;;;;;;7.78;3.20;;;;;;;6.90;89.16;101157.13;10487301;28;20033;-75
2022/05/31 01:41:02;;;;;;;8.68;3.78;;;;;;;6.96;89.23;101163.56;10465477;28;20138;-75
2022/05/31 01:46:06;;;;;;;7.50;3.15;;;;;;;6.99;88.41;101146.44;10530704;28;20383;-74
2022/05/31 01:51:08;;;;;;;8.98;3.95;;;;;;;7.05;88.20;101143.34;10490617;28;20071;-75
2022/05/31 01:56:09;;;;;;;5.80;3.67;;;;;;;7.17;88.71;101144.16;10470672;28;20035;-73
2022/05/31 02:01:10;;;;;;;7.05;3.65;;;;;;;7.28;88.25;101142.25;10488741;28;20357;-75
2022/05/31 02:06:31;;;;;;;7.10;4.43;;;;;;;7.38;88.27;101141.16;10529621;28;20074;-75
2022/05/31 02:11:31;;;;;;;6.53;4.50;;;;;;;7.47;87.16;101140.84;10473211;28;20087;-75
2022/05/31 02:16:32;;;;;;;14.05;5.50;;;;;;;7.56;86.96;101137.94;10470140;28;20400;-74
2022/05/31 02:21:35;;;;;;;11.55;5.18;;;;;;;7.60;85.62;101132.13;10488062;28;20534;-75
2022/05/31 02:26:36;;;;;;;10.15;5.20;;;;;;;7.59;85.79;101136.41;10470562;28;20403;-75
2022/05/31 02:31:37;;;;;;;11.30;5.30;;;;;;;7.63;85.89;101140.13;10507628;28;20029;-75
2022/05/31 02:36:37;;;;;;;9.23;5.80;;;;;;;7.69;85.14;101131.78;10527116;28;20097;-75
2022/05/31 02:41:38;;;;;;;14.10;7.25;;;;;;;7.72;85.42;101130.28;10488685;28;20070;-75
2022/05/31 02:46:38;;;;;;;10.93;5.22;;;;;;;7.81;86.35;101129.97;10484556;28;20166;-75
2022/05/31 02:51:41;;;;;;;11.93;6.32;;;;;;;7.74;85.67;101127.78;10507783;28;20048;-74
2022/05/31 02:56:42;;;;;;;9.93;6.47;;;;;;;7.71;85.44;101122.38;10504715;28;20037;-75
2022/05/31 03:01:43;;;;;;;9.70;6.25;;;;;;;7.73;84.42;101116.47;10507276;28;20118;-75
2022/05/31 03:06:43;;;;;;;14.10;7.55;;;;;;;7.71;85.11;101118.06;10527522;28;20040;-75
2022/05/31 03:12:11;;;;;;;13.82;6.00;;;;;;;7.72;85.23;101126.78;10486772;28;20052;-75
2022/05/31 03:17:15;;;;;;;10.73;6.60;;;;;;;7.73;86.66;101119.06;10481804;28;20119;-75
2022/05/31 03:22:19;;;;;;;8.82;6.13;;;;;;;7.77;85.86;101113.25;10509570;28;20035;-75
2022/05/31 03:27:20;;;;;;;16.27;8.20;;;;;;;7.78;86.63;101109.84;10527013;28;20040;-75
2022/05/31 03:32:20;;;;;;;12.32;8.00;;;;;;;7.81;86.59;101111.72;10498798;28;20060;-75
2022/05/31 03:37:21;;;;;;;15.90;8.77;;;;;;;7.79;86.04;101109.03;10481956;28;20036;-75
2022/05/31 03:42:21;;;;;;;11.60;7.35;;;;;;;7.81;85.74;101118.66;10499643;28;20041;-76
2022/05/31 03:47:22;;;;;;;13.40;7.22;;;;;;;7.90;86.15;101109.69;10484679;28;20056;-75
2022/05/31 03:52:22;;;;;;;12.50;9.38;;;;;;;7.91;86.00;101108.88;10508092;28;20067;-75
2022/05/31 03:57:23;;;;;;;16.88;9.57;;;;;;;7.89;85.44;101110.50;10484410;28;20492;-75
2022/05/31 04:02:23;;;;;;;16.27;7.57;;;;;;;7.91;84.61;101103.66;10508325;28;20132;-75
2022/05/31 04:07:24;;;;;;;11.13;7.90;;;;;;;7.92;85.26;101102.88;10524395;28;20071;-75
2022/05/31 04:12:24;;;;;;;11.13;7.75;;;;;;;7.94;86.47;101100.38;10482893;28;20033;-75
2022/05/31 04:17:25;;;;;;;13.15;7.93;;;;;;;7.95;86.94;101099.56;10447924;28;20037;-75
2022/05/31 04:22:25;;;;;;;13.00;9.65;;;;;;;7.97;87.90;101104.84;10481758;28;20587;-75
2022/05/31 04:27:26;;;;;;;13.00;9.68;;;;;;;8.03;87.07;101097.41;10481127;28;20108;-75
2022/05/31 04:32:27;;;;;;;11.43;7.38;;;;;;;8.10;86.18;101104.81;10482612;28;20094;-77
2022/05/31 04:37:28;;;;;;;14.02;8.00;;;;;;;8.12;86.64;101089.28;10506209;28;20033;-74
2022/05/31 04:42:28;;;;;;;13.98;9.30;;;;;;;8.17;87.08;101104.38;10493491;28;20351;-76
2022/05/31 04:47:29;;;;;;;15.88;9.85;;;;;;;8.26;87.10;101108.34;10492357;28;20083;-77
2022/05/31 04:52:29;;;;;;;20.83;9.70;;;;;;;8.38;88.27;101122.13;10489256;28;20040;-76
2022/05/31 04:57:30;;;;;;;14.18;10.50;;;;;;;8.55;87.88;101132.72;10480083;28;20067;-77
2022/05/31 05:02:31;;;;;;;14.32;9.77;;;;;;;8.63;86.18;101128.88;10481036;28;20052;-74
2022/05/31 05:07:34;;;;;;;14.35;9.63;;;;;;;8.74;84.98;101133.00;10493361;28;20040;-74
2022/05/31 05:12:35;;;;;;;15.10;9.10;;;;;;;8.90;84.31;101129.63;10465091;28;20124;-74
2022/05/31 05:17:36;;;;;;;12.55;9.02;;;;;;;8.89;85.47;101134.72;10468545;28;20041;-76
2022/05/31 05:22:36;;;;;;;12.70;9.15;;;;;;;8.82;85.00;101130.88;10490308;28;20037;-76
2022/05/31 05:27:36;;;;;;;18.35;10.40;;;;;;;8.84;85.64;101129.25;10489737;28;20118;-74
2022/05/31 05:32:37;;;;;;;16.30;10.10;;;;;;;8.84;86.69;101134.47;10470642;28;20057;-74
2022/05/31 05:37:40;;;;;;;15.10;9.98;;;;;;;8.91;86.54;101122.66;10490863;28;20131;-74
2022/05/31 05:42:41;;;;;;;21.30;11.25;;;;;;;8.98;86.81;101116.09;10487161;28;20071;-74
2022/05/31 05:47:42;;;;;;;13.88;9.55;;;;;;;8.82;87.30;101110.00;10499760;28;20122;-77
2022/05/31 05:52:45;;;;;;;17.00;10.57;;;;;;;8.88;88.16;101107.75;10530794;28;20040;-74
2022/05/31 05:57:45;;;;;;;14.73;12.68;;;;;;;8.95;87.86;101108.97;10510243;28;20040;-75
2022/05/31 06:02:47;;;;;;;18.65;11.13;;;;;;;9.21;85.65;101104.34;10491853;28;20181;-76
2022/05/31 06:07:57;;;;;;;43.77;16.97;;;;;;;9.34;86.17;101098.13;10516358;28;20053;-76
2022/05/31 06:13:02;;;;;;;14.98;9.82;;;;;;;9.66;85.82;101135.63;10503261;28;20488;-76
2022/05/31 06:18:06;;;;;;;18.27;10.20;;;;;;;9.92;85.14;101150.09;10504152;28;20039;-77
2022/05/31 06:23:07;;;;;;;17.10;9.85;;;;;;;10.45;84.83;101129.41;10501354;28;20052;-77
2022/05/31 06:28:07;;;;;;;14.23;8.43;;;;;;;10.72;79.74;101129.94;10529299;28;20050;-77
2022/05/31 06:33:08;;;;;;;16.15;7.03;;;;;;;10.74;79.42;101131.72;10514282;28;20071;-75
2022/05/31 06:38:08;;;;;;;14.35;6.65;;;;;;;10.55;77.65;101129.06;10486872;28;20421;-76
2022/05/31 06:43:09;;;;;;;16.38;7.15;;;;;;;10.28;79.15;101131.09;10502158;28;20075;-75
2022/05/31 06:48:09;;;;;;;12.98;7.13;;;;;;;10.06;79.22;101132.56;10487877;28;20032;-75
2022/05/31 06:58:29;;;;;;;12.48;8.50;;;;;;;9.87;81.19;101121.94;10447549;28;20033;-74
2022/05/31 07:03:29;;;;;;;14.43;8.85;;;;;;;9.96;82.78;101133.78;10458391;28;20475;-74
2022/05/31 07:08:30;;;;;;;15.00;7.78;;;;;;;10.30;81.94;101121.63;10483215;28;20044;-74
2022/05/31 07:13:30;;;;;;;13.55;7.78;;;;;;;10.52;81.08;101117.53;10485727;28;20056;-74
2022/05/31 07:18:31;;;;;;;12.60;8.18;;;;;;;10.80;80.33;101103.25;10474978;28;20061;-76
2022/05/31 07:23:31;;;;;;;14.90;9.30;;;;;;;11.36;79.80;101106.84;10481406;28;20066;-74
2022/05/31 07:28:32;;;;;;;12.25;9.90;;;;;;;11.76;76.51;101105.25;10479835;28;20128;-74
2022/05/31 07:33:32;;;;;;;21.80;9.70;;;;;;;12.54;73.38;101114.84;10482230;28;20097;-75
2022/05/31 07:38:33;;;;;;;11.65;6.82;;;;;;;15.51;66.38;101115.38;10483498;28;20106;-75
2022/05/31 07:43:33;;;;;;;9.88;6.20;;;;;;;18.61;51.17;101114.28;10484417;28;20037;-74
2022/05/31 07:48:34;;;;;;;7.72;5.10;;;;;;;19.80;49.06;101113.56;10483444;28;20392;-76
2022/05/31 07:53:34;;;;;;;10.57;5.40;;;;;;;19.61;47.22;101114.19;10454040;28;20037;-77
2022/05/31 07:58:38;;;;;;;8.02;5.22;;;;;;;20.65;44.17;101099.50;10425132;28;20154;-77
2022/05/31 08:03:39;;;;;;;9.93;5.03;;;;;;;20.69;43.31;101101.31;10442183;28;20033;-77
2022/05/31 08:08:40;;;;;;;8.52;5.45;;;;;;;18.39;47.30;101094.47;10424068;28;20036;-76
2022/05/31 08:13:40;;;;;;;8.20;5.82;;;;;;;19.27;47.75;101093.34;10406985;28;20388;-76
2022/05/31 08:18:42;;;;;;;9.38;4.60;;;;;;;20.81;43.35;101071.31;10424721;28;20087;-77
2022/05/31 08:23:43;;;;;;;;;;;;;;;20.21;44.67;101072.47;10424064;28;20056;-76
2022/05/31 08:28:43;;;;;;;9.30;4.35;;;;;;;20.77;43.11;101070.34;10502094;28;19954;-76
2022/05/31 08:33:44;;;;;;;6.67;3.60;;;;;;;21.74;43.24;101074.63;10523748;28;20060;-76
2022/05/31 08:38:45;;;;;;;5.43;3.20;;;;;;;23.13;39.13;101063.31;10498129;28;20071;-76
2022/05/31 08:43:45;;;;;;;8.13;3.07;;;;;;;23.80;38.16;101054.25;10486629;28;20139;-77
2022/05/31 08:48:57;;;;;;;5.30;3.80;;;;;;;24.33;35.31;101063.81;10477626;28;20047;-74
2022/05/31 08:59:25;;;;;;;7.63;4.22;;;;;;;23.17;37.92;101077.56;10488637;28;19912;-75
2022/05/31 09:04:28;;;;;;;7.80;4.50;;;;;;;23.93;36.04;101072.00;10470490;28;20048;-75
2022/05/31 09:09:34;;;;;;;6.85;3.47;;;;;;;23.91;35.44;101060.44;10453872;28;20036;-76
2022/05/31 09:14:40;;;;;;;6.70;4.90;;;;;;;24.42;35.55;101068.22;10470659;28;20047;-76
2022/05/31 09:19:51;;;;;;;7.43;4.20;;;;;;;24.57;34.49;101069.88;10487084;28;20047;-74
2022/05/31 09:24:52;;;;;;;5.73;4.17;;;;;;;25.82;33.48;101058.91;10474304;28;20045;-74
2022/05/31 09:30:12;;;;;;;8.50;5.50;;;;;;;22.60;40.72;101054.47;10487236;28;20040;-74
2022/05/31 09:35:29;;;;;;;6.78;4.40;;;;;;;23.79;38.74;101053.38;10487291;28;20093;-75
2022/05/31 09:40:45;;;;;;;5.78;2.88;;;;;;;24.48;36.55;101054.81;10487357;28;20036;-75
2022/05/31 09:45:53;;;;;;;6.97;4.13;;;;;;;25.05;33.80;101056.16;10471501;28;20358;-77
2022/05/31 09:51:25;;;;;;;5.43;3.88;;;;;;;25.60;34.20;101045.78;10446960;28;20044;-78
2022/05/31 10:01:47;;;;;;;6.53;4.27;;;;;;;23.87;34.22;101043.56;10474104;28;20143;-75
2022/05/31 10:06:54;;;;;;;7.00;4.67;;;;;;;25.55;31.95;101034.22;10468197;28;20044;-75
2022/05/31 10:12:10;;;;;;;7.55;4.57;;;;;;;25.21;30.53;101019.38;10515059;28;20051;-76
2022/05/31 10:17:34;;;;;;;10.02;4.45;;;;;;;25.29;31.71;101027.34;10515563;28;20082;-76
2022/05/31 10:22:35;;;;;;;6.57;4.28;;;;;;;25.96;30.10;101021.19;10486885;28;20056;-78
2022/05/31 10:27:36;;;;;;;7.68;4.43;;;;;;;26.35;31.35;101016.16;10504805;28;20382;-77
2022/05/31 10:32:47;;;;;;;6.70;4.20;;;;;;;27.23;28.44;101012.88;10468245;28;20056;-75
2022/05/31 10:37:57;;;;;;;6.50;4.40;;;;;;;27.72;28.94;101008.31;10492985;28;20131;-76
2022/05/31 10:43:01;;;;;;;7.30;5.53;;;;;;;26.78;30.06;101009.19;10525146;28;20279;-76
2022/05/31 10:48:02;;;;;;;9.55;5.35;;;;;;;25.27;32.54;101012.19;10507646;28;20123;-76
2022/05/31 10:53:17;;;;;;;7.17;4.93;;;;;;;24.30;34.24;101014.81;10510753;28;20061;-75
2022/05/31 10:58:37;;;;;;;7.35;4.43;;;;;;;23.13;35.74;100996.59;10459690;28;20449;-76
2022/05/31 11:03:55;;;;;;;7.35;4.72;;;;;;;24.52;33.80;100995.94;10498271;28;20040;-75
2022/05/31 11:15:36;;;;;;;7.60;3.13;;;;;;;21.42;35.60;100996.31;10462164;28;20480;-75
2022/05/31 11:21:07;;;;;;;6.65;4.63;;;;;;;20.13;38.59;100997.09;10443913;28;20056;-75
2022/05/31 11:26:26;;;;;;;6.85;3.67;;;;;;;19.15;43.64;101002.94;10435244;28;20459;-75
2022/05/31 11:31:32;;;;;;;7.20;3.88;;;;;;;18.17;41.52;101001.34;10483015;28;20048;-75
2022/05/31 11:37:04;;;;;;;19.83;4.55;;;;;;;17.05;51.59;101020.16;10524620;28;20068;-76
2022/05/31 11:42:26;;;;;;;7.30;3.17;;;;;;;16.41;52.84;101025.59;10524066;28;20392;-75
2022/05/31 11:47:46;;;;;;;7.78;3.47;;;;;;;16.33;54.78;101021.88;10499118;28;20286;-74
2022/05/31 11:53:16;;;;;;;5.55;3.33;;;;;;;16.43;51.77;101019.50;10516857;28;20040;-75
2022/05/31 11:58:38;;;;;;;5.20;2.80;;;;;;;16.57;48.21;101022.50;10513960;28;20438;-75
2022/05/31 12:03:44;;;;;;;3.17;1.73;;;;;;;16.71;47.09;101027.25;10503318;28;20040;-75
2022/05/31 12:09:16;;;;;;;3.88;2.35;;;;;;;16.78;45.08;101015.97;10513249;28;20535;-74
2022/05/31 12:14:17;;;;;;;5.15;3.15;;;;;;;16.70;46.72;101028.09;10500476;28;20404;-75
2022/05/31 12:19:41;;;;;;;6.30;3.57;;;;;;;16.57;49.68;101026.88;10491324;28;20032;-75
2022/05/31 12:24:54;;;;;;;21.73;14.02;;;;;;;16.53;52.31;101031.19;10520881;28;20044;-74
2022/05/31 12:30:05;;;;;;;16.15;9.32;;;;;;;16.25;55.65;101032.22;10474197;28;20028;-74
2022/05/31 12:35:09;;;;;;;6.93;4.22;;;;;;;15.68;59.35;101032.38;10501408;28;20040;-74
2022/05/31 12:40:22;;;;;;;5.40;2.90;;;;;;;15.72;65.76;101028.06;10480596;28;20033;-75
2022/05/31 12:45:26;;;;;;;4.65;3.15;;;;;;;16.97;61.11;101027.00;10474000;28;20046;-74
2022/05/31 12:50:45;;;;;;;4.63;3.30;;;;;;;17.16;62.63;101017.75;10496552;28;20044;-74
2022/05/31 12:55:47;;;;;;;5.30;2.70;;;;;;;16.53;63.90;101022.38;10504018;28;20059;-74
2022/05/31 13:00:48;;;;;;;4.15;2.90;;;;;;;16.93;59.81;101026.00;10497653;28;20079;-73
2022/05/31 13:06:04;;;;;;;6.00;3.08;;;;;;;20.17;49.67;101013.97;10474733;28;20124;-73
2022/05/31 13:21:45;;;;;;;7.03;4.25;;;;;;;19.61;43.91;100990.28;10485270;28;20123;-74
2022/05/31 13:26:46;;;;;;;10.20;6.47;;;;;;;19.19;47.35;100988.84;10476184;28;20505;-74
2022/05/31 13:31:57;;;;;;;9.73;6.93;;;;;;;19.74;43.53;100978.06;10482036;28;20064;-74
2022/05/31 13:36:58;;;;;;;8.18;5.75;;;;;;;20.04;46.77;100991.69;10486619;28;20146;-74
2022/05/31 13:42:01;;;;;;;8.27;7.47;;;;;;;20.58;41.43;100993.97;10500100;28;20048;-75
2022/05/31 13:47:04;;;;;;;15.25;11.88;;;;;;;21.39;39.98;100992.78;10464950;28;20045;-75
2022/05/31 13:52:18;;;;;;;11.50;6.57;;;;;;;22.76;35.79;100979.75;10467811;28;20036;-74
2022/05/31 13:57:20;;;;;;;5.10;2.92;;;;;;;22.08;34.91;100986.81;10510725;28;20036;-74
2022/05/31 14:02:52;;;;;;;5.10;3.35;;;;;;;23.50;35.25;100981.38;10490586;28;20093;-75
2022/05/31 14:07:53;;;;;;;5.00;3.67;;;;;;;24.33;32.08;100982.72;10482867;28;20461;-75
2022/05/31 14:12:59;;;;;;;5.77;3.10;;;;;;;24.12;31.84;100979.28;10478633;28;20043;-75
2022/05/31 14:18:14;;;;;;;6.50;3.88;;;;;;;23.31;33.63;100978.78;10503680;28;20492;-74
2022/05/31 14:23:20;;;;;;;9.77;5.88;;;;;;;23.65;34.62;101001.81;10474316;28;20408;-75
2022/05/31 14:28:23;;;;;;;10.32;4.97;;;;;;;23.18;35.81;100991.25;10496949;28;20045;-74
2022/05/31 14:33:25;;;;;;;7.65;5.25;;;;;;;22.38;39.18;100994.84;10480357;28;20048;-75
2022/05/31 14:38:30;;;;;;;7.63;4.38;;;;;;;20.99;40.97;100993.41;10469125;28;20047;-74
2022/05/31 14:43:32;;;;;;;9.38;4.78;;;;;;;21.59;41.59;100989.31;10485377;28;20028;-74
2022/05/31 14:48:35;;;;;;;6.05;4.15;;;;;;;22.29;39.50;100991.28;10484638;28;20075;-74
2022/05/31 14:53:37;;;;;;;5.88;4.25;;;;;;;22.53;37.69;100999.34;10487252;28;20036;-74
2022/05/31 14:58:40;;;;;;;8.27;4.93;;;;;;;22.52;37.04;101000.22;10462894;28;20132;-75
2022/05/31 15:03:43;;;;;;;8.35;4.95;;;;;;;21.16;38.96;101012.16;10483807;28;20045;-75
2022/05/31 15:08:46;;;;;;;11.52;5.65;;;;;;;20.33;39.92;101002.63;10423737;28;20056;-74
2022/05/31 15:19:25;;;;;;;6.53;4.50;;;;;;;18.60;44.05;101004.75;10444846;28;20065;-74
2022/05/31 15:24:41;;;;;;;9.45;5.07;;;;;;;18.51;43.48;101008.97;10442049;28;20129;-74
2022/05/31 15:29:41;;;;;;;9.05;4.18;;;;;;;18.99;43.07;100999.19;10479997;28;20082;-73
2022/05/31 15:34:42;;;;;;;9.23;5.47;;;;;;;19.32;40.53;100989.94;10506767;28;20257;-73
2022/05/31 15:39:43;;;;;;;6.95;5.07;;;;;;;19.74;39.92;100991.34;10512881;28;20115;-75
2022/05/31 15:44:44;;;;;;;9.73;5.13;;;;;;;19.85;38.59;100991.47;10492451;28;20546;-75
2022/05/31 15:49:45;;;;;;;8.18;4.97;;;;;;;19.34;40.94;100986.41;10441775;28;20041;-74
2022/05/31 15:54:55;;;;;;;7.00;4.43;;;;;;;19.15;42.62;100977.31;10484208;28;20048;-74
2022/05/31 15:59:56;;;;;;;11.13;5.03;;;;;;;18.83;41.54;100974.16;10513643;28;20396;-74
2022/05/31 16:04:56;;;;;;;6.32;4.25;;;;;;;18.13;44.45;100979.19;10481969;28;20115;-75
2022/05/31 16:09:57;;;;;;;5.88;3.92;;;;;;;17.54;44.06;100980.66;10483808;28;20047;-75
2022/05/31 16:14:58;;;;;;;8.80;3.70;;;;;;;17.25;52.23;100977.41;10481032;28;20075;-75
2022/05/31 16:19:59;;;;;;;7.00;4.13;;;;;;;16.94;51.78;100976.69;10465388;28;20131;-74
2022/05/31 16:25:01;;;;;;;8.70;4.30;;;;;;;16.63;49.60;100984.75;10487699;28;20082;-73
2022/05/31 16:30:01;;;;;;;10.85;5.18;;;;;;;16.41;53.42;100993.91;10439649;28;20370;-73
2022/05/31 16:35:02;;;;;;;10.93;6.07;;;;;;;16.08;57.32;101018.56;10478839;28;20057;-73
2022/05/31 16:45:22;;;;;;;10.93;6.00;;;;;;;13.98;68.27;101029.44;10432061;28;20492;-75
2022/05/31 16:50:22;;;;;;;12.05;6.57;;;;;;;13.48;76.94;101027.63;10443818;28;20041;-77
2022/05/31 16:55:23;;;;;;;10.95;6.50;;;;;;;13.29;78.69;101034.75;10434079;28;20119;-75
2022/05/31 17:00:23;;;;;;;10.98;6.15;;;;;;;13.36;77.43;101034.16;10440565;28;20033;-74
2022/05/31 17:05:24;;;;;;;9.38;6.80;;;;;;;13.43;74.34;101016.91;10426488;28;20036;-74
2022/05/31 17:15:44;;;;;;;10.27;6.20;;;;;;;13.11;83.71;101010.38;10503752;28;20048;-74
2022/05/31 17:20:48;;;;;;;15.98;8.27;;;;;;;13.19;83.14;101012.47;10452352;28;20033;-73
2022/05/31 17:25:53;;;;;;;10.63;7.80;;;;;;;13.17;83.37;101014.13;10452458;28;20119;-74
2022/05/31 17:30:53;;;;;;;11.50;8.65;;;;;;;13.09;85.03;101014.69;10441429;28;20049;-74
2022/05/31 17:36:02;;;;;;;11.05;8.50;;;;;;;12.95;85.13;101016.75;10449370;28;20488;-74
2022/05/31 17:41:16;;;;;;;11.40;6.47;;;;;;;12.81;84.20;101018.81;10432759;28;20029;-73
2022/05/31 17:46:17;;;;;;;8.70;7.75;;;;;;;12.82;85.35;101032.00;10478669;28;20404;-73
2022/05/31 17:51:18;;;;;;;10.38;7.57;;;;;;;12.91;85.41;101045.50;10483762;28;20141;-73
2022/05/31 17:56:19;;;;;;;13.95;7.05;;;;;;;13.09;84.19;101054.97;10479683;28;20051;-73
2022/05/31 18:01:19;;;;;;;10.15;6.80;;;;;;;13.04;83.14;101056.53;10510744;28;20032;-73
2022/05/31 18:06:23;;;;;;;9.82;7.25;;;;;;;12.91;84.91;101063.91;10454100;28;20045;-73
2022/05/31 18:11:24;;;;;;;9.38;7.60;;;;;;;12.81;86.20;101064.34;10447767;28;20044;-73
2022/05/31 18:16:26;;;;;;;11.07;8.55;;;;;;;12.81;87.61;101077.47;10509802;28;20085;-73
2022/05/31 18:21:27;;;;;;;12.00;9.48;;;;;;;12.75;87.90;101087.72;10528577;28;20451;-74
2022/05/31 18:26:27;;;;;;;13.48;10.70;;;;;;;12.77;89.46;101107.06;10488373;28;20362;-73
2022/05/31 18:31:28;;;;;;;12.18;9.95;;;;;;;12.70;88.83;101126.94;10487491;28;20028;-73
2022/05/31 18:41:47;;;;;;;10.63;8.77;;;;;;;12.25;78.32;101174.81;10516367;28;20032;-74
2022/05/31 18:46:48;;;;;;;10.68;9.07;;;;;;;12.11;76.88;101152.31;10463261;28;20393;-73
2022/05/31 18:51:48;;;;;;;14.13;10.88;;;;;;;11.96;77.90;101150.75;10463678;28;20041;-73
2022/05/31 18:56:49;;;;;;;14.18;12.50;;;;;;;11.69;81.64;101158.22;10484038;28;20171;-72
2022/05/31 19:01:56;;;;;;;15.05;12.13;;;;;;;11.66;81.96;101155.44;10485719;28;20468;-74
2022/05/31 19:06:56;;;;;;;18.27;12.77;;;;;;;11.43;83.69;101145.63;10483435;28;20111;-73
2022/05/31 19:11:58;;;;;;;16.98;12.95;;;;;;;11.24;84.75;101146.47;10485542;28;20073;-74
2022/05/31 19:16:59;;;;;;;12.73;11.40;;;;;;;11.11;82.49;101146.69;10467265;28;20051;-74
2022/05/31 19:21:59;;;;;;;18.05;11.25;;;;;;;10.85;83.31;101135.81;10451328;28;20123;-73
2022/05/31 19:27:00;;;;;;;17.45;12.15;;;;;;;10.62;84.40;101132.91;10484537;28;20032;-73
2022/05/31 19:32:00;;;;;;;19.77;13.18;;;;;;;10.49;84.79;101126.13;10495442;28;20119;-73
2022/05/31 19:37:01;;;;;;;14.10;12.55;;;;;;;10.43;85.53;101137.19;10468082;28;20146;-73
2022/05/31 19:42:03;;;;;;;13.52;11.55;;;;;;;10.32;86.51;101138.28;10525533;28;20039;-73
2022/05/31 19:47:04;;;;;;;16.48;12.73;;;;;;;10.11;86.59;101146.78;10494798;28;20041;-73
2022/05/31 19:52:05;;;;;;;18.92;13.90;;;;;;;9.97;87.44;101166.94;10522710;28;20035;-73
2022/05/31 19:57:23;;;;;;;15.73;12.65;;;;;;;9.90;88.22;101164.81;10507163;28;20111;-74
2022/05/31 20:02:24;;;;;;;18.88;16.30;;;;;;;9.91;88.85;101165.72;10504801;28;20044;-74
2022/05/31 20:07:26;;;;;;;19.38;15.48;;;;;;;9.82;89.83;101172.25;10481962;28;20396;-73
2022/05/31 20:12:28;;;;;;;18.83;15.65;;;;;;;9.79;90.10;101194.69;10503220;28;20489;-73
2022/05/31 20:17:29;;;;;;;21.05;18.17;;;;;;;9.82;91.72;101218.38;10504579;28;20038;-74
2022/05/31 20:22:39;;;;;;;15.88;13.60;;;;;;;9.81;90.73;101183.50;10468748;28;20390;-76
2022/05/31 20:27:40;;;;;;;18.73;15.27;;;;;;;9.64;91.21;101194.75;10490279;28;20675;-75
2022/05/31 20:32:42;;;;;;;19.90;15.98;;;;;;;9.50;91.57;101193.94;10477200;28;20037;-75
2022/05/31 20:37:44;;;;;;;19.42;17.17;;;;;;;9.29;91.88;101198.84;10494140;28;20484;-74
2022/05/31 20:42:50;;;;;;;19.13;16.87;;;;;;;9.21;93.18;101201.91;10495667;28;20059;-75
2022/05/31 20:47:50;;;;;;;22.17;18.95;;;;;;;9.08;93.93;101204.59;10470707;28;20060;-74
2022/05/31 20:52:52;;;;;;;23.20;19.15;;;;;;;8.83;94.33;101218.81;10494823;28;20556;-75
2022/05/31 20:57:53;;;;;;;22.98;17.65;;;;;;;8.50;93.85;101224.66;10504760;28;20042;-74
2022/05/31 21:02:54;;;;;;;29.40;20.27;;;;;;;8.29;94.72;101218.97;10523172;28;20079;-74
2022/05/31 21:07:55;;;;;;;27.70;21.85;;;;;;;8.12;96.21;101237.88;10532648;28;20044;-75
2022/05/31 21:12:56;;;;;;;25.17;19.13;;;;;;;7.89;96.55;101242.53;10506555;28;20115;-75
2022/05/31 21:17:56;;;;;;;27.80;23.52;;;;;;;7.78;97.38;101242.72;10532466;28;20042;-75
2022/05/31 21:22:57;;;;;;;27.50;21.83;;;;;;;7.61;97.17;101231.19;10499404;28;20068;-75
2022/05/31 21:27:58;;;;;;;27.02;22.13;;;;;;;7.39;97.79;101230.56;10474345;28;20040;-75
2022/05/31 21:32:59;;;;;;;25.15;21.45;;;;;;;7.18;97.73;101244.88;10458311;28;20037;-74
2022/05/31 21:38:02;;;;;;;33.25;24.13;;;;;;;7.21;98.98;101249.38;10466325;28;20040;-75
2022/05/31 21:43:03;;;;;;;36.80;29.87;;;;;;;7.14;99.49;101245.47;10509491;28;20107;-75
2022/05/31 21:48:07;;;;;;;32.33;27.40;;;;;;;7.07;100.00;101248.47;10513390;28;20059;-74
2022/05/31 21:53:07;;;;;;;35.28;25.95;;;;;;;6.93;100.00;101252.72;10496842;28;20041;-75
2022/05/31 21:58:08;;;;;;;33.40;26.48;;;;;;;6.75;99.82;101260.16;10471210;28;20040;-74
2022/05/31 22:03:09;;;;;;;34.47;26.95;;;;;;;6.64;100.00;101246.38;10500493;28;20043;-75
2022/05/31 22:08:10;;;;;;;37.38;27.80;;;;;;;6.51;100.00;101248.94;10488669;28;20093;-74
2022/05/31 22:13:11;;;;;;;37.17;28.25;;;;;;;6.43;100.00;101238.91;10470109;28;20045;-75
2022/05/31 22:18:12;;;;;;;38.88;31.17;;;;;;;6.61;100.00;101246.19;10524059;28;20035;-75
2022/05/31 22:23:12;;;;;;;38.40;30.75;;;;;;;6.78;100.00;101238.66;10514225;28;20043;-75
2022/05/31 22:28:13;;;;;;;41.63;31.33;;;;;;;6.95;100.00;101232.00;10489261;28;20138;-75
2022/05/31 22:33:15;;;;;;;37.90;28.85;;;;;;;7.03;100.00;101231.72;10492809;28;20119;-75
2022/05/31 22:38:38;;;;;;;36.47;30.30;;;;;;;7.09;100.00;101228.66;10509531;28;20066;-75
2022/05/31 22:43:39;;;;;;;;;;;;;;;7.12;100.00;101215.84;10508943;28;20037;-74
2022/05/31 22:48:40;;;;;;;34.83;28.45;;;;;;;7.08;100.00;101216.44;10520162;28;19920;-74
2022/05/31 22:53:40;;;;;;;35.78;27.83;;;;;;;7.16;100.00;101214.31;10527534;28;20032;-74
2022/05/31 22:58:41;;;;;;;43.13;31.85;;;;;;;7.25;100.00;101220.16;10489553;28;20036;-74
2022/05/31 23:03:45;;;;;;;42.92;32.33;;;;;;;7.29;100.00;101219.56;10498607;28;20032;-75
2022/05/31 23:08:46;;;;;;;38.58;30.20;;;;;;;7.20;100.00;101209.44;10446914;28;20033;-74
2022/05/31 23:13:46;;;;;;;37.92;28.85;;;;;;;7.07;100.00;101212.03;10444934;28;20037;-75
2022/05/31 23:18:48;;;;;;;37.40;28.83;;;;;;;7.03;100.00;101203.09;10519217;28;20047;-74
2022/05/31 23:23:49;;;;;;;40.17;30.37;;;;;;;7.03;100.00;101205.69;10470904;28;20040;-74
2022/05/31 23:28:51;;;;;;;48.70;36.05;;;;;;;6.93;100.00;101211.06;10502528;28;20283;-74
2022/05/31 23:34:06;;;;;;;43.47;35.00;;;;;;;6.76;100.00;101205.63;10501073;28;20047;-74
2022/05/31 23:39:07;;;;;;;37.20;31.95;;;;;;;6.60;100.00;101206.28;10450561;28;20060;-74
2022/05/31 23:44:08;;;;;;;44.38;32.45;;;;;;;6.46;100.00;101209.63;10508451;28;20040;-75
2022/05/31 23:49:09;;;;;;;40.00;28.92;;;;;;;6.41;100.00;101208.41;10491669;28;20370;-74
2022/05/31 23:54:09;;;;;;;47.95;34.42;;;;;;;6.26;100.00;101205.59;10493990;28;20093;-74
2022/05/31 23:59:10;;;;;;;46.72;34.90;;;;;;;6.23;100.00;101192.41;10484537;28;20537;-74
